sensor_id;sensor_type;location;lat;lon;timestamp;temperature;humidity
8684;DHT22;4379;59.744;18.206;2023-06-10T00:01:49;1.90;99.90
8684;DHT22;4379;59.744;18.206;2023-06-10T00:04:16;1.80;99.90
8684;DHT22;4379;59.744;18.206;2023-06-10T00:06:44;1.80;99.90
8684;DHT22;4379;59.744;18.206;2023-06-10T00:09:11;1.70;99.90
8684;DHT22;4379;59.744;18.206;2023-06-10T00:11:41;1.70;99.90
8684;DHT22;4379;59.744;18.206;2023-06-10T00:14:08;1.60;99.90
8684;DHT22;4379;59.744;18.206;2023-06-10T00:16:36;1.60;99.90
8684;DHT22;4379;59.744;18.206;2023-06-10T00:19:04;1.70;99.90
8684;DHT22;4379;59.744;18.206;2023-06-10T00:21:32;1.80;99.90
8684;DHT22;4379;59.744;18.206;2023-06-10T00:24:08;1.70;99.90
8684;DHT22;4379;59.744;18.206;2023-06-10T00:26:41;1.70;99.90
8684;DHT22;4379;59.744;18.206;2023-06-10T00:29:10;1.70;99.90
8684;DHT22;4379;59.744;18.206;2023-06-10T00:31:38;1.60;99.90
8684;DHT22;4379;59.744;18.206;2023-06-10T00:34:06;1.60;99.90
8684;DHT22;4379;59.744;18.206;2023-06-10T00:36:34;1.50;99.90
8684;DHT22;4379;59.744;18.206;2023-06-10T00:39:03;1.50;99.90
8684;DHT22;4379;59.744;18.206;2023-06-10T00:41:32;1.40;99.90
8684;DHT22;4379;59.744;18.206;2023-06-10T00:44:01;1.40;99.90
8684;DHT22;4379;59.744;18.206;2023-06-10T00:46:29;1.40;99.90
8684;DHT22;4379;59.744;18.206;2023-06-10T00:48:59;1.30;99.90
8684;DHT22;4379;59.744;18.206;2023-06-10T00:51:27;1.40;99.90
8684;DHT22;4379;59.744;18.206;2023-06-10T00:53:54;1.50;99.90
8684;DHT22;4379;59.744;18.206;2023-06-10T00:56:22;1.40;99.90
8684;DHT22;4379;59.744;18.206;2023-06-10T00:58:49;1.30;99.90
8684;DHT22;4379;59.744;18.206;2023-06-10T01:01:17;1.40;99.90
8684;DHT22;4379;59.744;18.206;2023-06-10T01:03:45;1.40;99.90
8684;DHT22;4379;59.744;18.206;2023-06-10T01:09:06;1.30;99.90
8684;DHT22;4379;59.744;18.206;2023-06-10T01:11:47;1.30;99.90
8684;DHT22;4379;59.744;18.206;2023-06-10T01:14:17;1.20;99.90
8684;DHT22;4379;59.744;18.206;2023-06-10T01:16:45;1.30;99.90
8684;DHT22;4379;59.744;18.206;2023-06-10T01:19:13;1.30;99.90
8684;DHT22;4379;59.744;18.206;2023-06-10T01:21:41;1.20;99.90
8684;DHT22;4379;59.744;18.206;2023-06-10T01:24:09;1.30;99.90
8684;DHT22;4379;59.744;18.206;2023-06-10T01:26:42;1.30;99.90
8684;DHT22;4379;59.744;18.206;2023-06-10T01:29:14;1.20;99.90
8684;DHT22;4379;59.744;18.206;2023-06-10T01:32:18;1.10;99.90
8684;DHT22;4379;59.744;18.206;2023-06-10T01:34:50;1.00;99.90
8684;DHT22;4379;59.744;18.206;2023-06-10T01:37:19;0.90;99.90
8684;DHT22;4379;59.744;18.206;2023-06-10T01:39:48;0.90;99.90
8684;DHT22;4379;59.744;18.206;2023-06-10T01:42:17;0.90;99.90
8684;DHT22;4379;59.744;18.206;2023-06-10T01:44:44;0.80;99.90
8684;DHT22;4379;59.744;18.206;2023-06-10T01:47:11;0.80;99.90
8684;DHT22;4379;59.744;18.206;2023-06-10T01:49:39;0.70;99.90
8684;DHT22;4379;59.744;18.206;2023-06-10T01:52:06;0.70;99.90
8684;DHT22;4379;59.744;18.206;2023-06-10T01:54:34;0.60;99.90
8684;DHT22;4379;59.744;18.206;2023-06-10T01:57:04;0.70;99.90
8684;DHT22;4379;59.744;18.206;2023-06-10T01:59:33;0.70;99.90
8684;DHT22;4379;59.744;18.206;2023-06-10T02:02:00;0.70;99.90
8684;DHT22;4379;59.744;18.206;2023-06-10T02:04:29;0.70;99.90
8684;DHT22;4379;59.744;18.206;2023-06-10T02:06:57;0.70;99.90
8684;DHT22;4379;59.744;18.206;2023-06-10T02:09:25;0.70;99.90
8684;DHT22;4379;59.744;18.206;2023-06-10T02:11:52;0.70;99.90
8684;DHT22;4379;59.744;18.206;2023-06-10T02:14:20;0.70;99.90
8684;DHT22;4379;59.744;18.206;2023-06-10T02:16:47;0.70;99.90
8684;DHT22;4379;59.744;18.206;2023-06-10T02:19:15;0.80;99.90
8684;DHT22;4379;59.744;18.206;2023-06-10T02:21:42;0.80;99.90
8684;DHT22;4379;59.744;18.206;2023-06-10T02:24:09;0.90;99.90
8684;DHT22;4379;59.744;18.206;2023-06-10T02:26:37;0.90;99.90
8684;DHT22;4379;59.744;18.206;2023-06-10T02:29:04;1.00;99.90
8684;DHT22;4379;59.744;18.206;2023-06-10T02:31:31;1.10;99.90
8684;DHT22;4379;59.744;18.206;2023-06-10T02:33:58;1.10;99.90
8684;DHT22;4379;59.744;18.206;2023-06-10T02:36:26;1.20;99.90
8684;DHT22;4379;59.744;18.206;2023-06-10T02:38:54;1.30;99.90
8684;DHT22;4379;59.744;18.206;2023-06-10T02:41:21;1.50;99.90
8684;DHT22;4379;59.744;18.206;2023-06-10T02:43:49;1.70;99.90
8684;DHT22;4379;59.744;18.206;2023-06-10T02:46:16;1.90;99.90
8684;DHT22;4379;59.744;18.206;2023-06-10T02:48:43;2.00;99.90
8684;DHT22;4379;59.744;18.206;2023-06-10T02:51:11;2.00;99.90
8684;DHT22;4379;59.744;18.206;2023-06-10T02:53:38;2.10;99.90
8684;DHT22;4379;59.744;18.206;2023-06-10T02:56:05;2.20;99.90
8684;DHT22;4379;59.744;18.206;2023-06-10T02:58:32;2.20;99.90
8684;DHT22;4379;59.744;18.206;2023-06-10T03:01:00;2.30;99.90
8684;DHT22;4379;59.744;18.206;2023-06-10T03:03:27;2.40;99.90
8684;DHT22;4379;59.744;18.206;2023-06-10T03:05:55;2.60;99.90
8684;DHT22;4379;59.744;18.206;2023-06-10T03:08:23;2.80;99.90
8684;DHT22;4379;59.744;18.206;2023-06-10T03:10:50;2.90;99.90
8684;DHT22;4379;59.744;18.206;2023-06-10T03:13:18;3.00;99.90
8684;DHT22;4379;59.744;18.206;2023-06-10T03:15:45;3.20;99.90
8684;DHT22;4379;59.744;18.206;2023-06-10T03:18:13;3.40;99.90
8684;DHT22;4379;59.744;18.206;2023-06-10T03:20:41;3.60;99.90
8684;DHT22;4379;59.744;18.206;2023-06-10T03:23:09;3.70;99.90
8684;DHT22;4379;59.744;18.206;2023-06-10T03:25:36;3.90;99.90
8684;DHT22;4379;59.744;18.206;2023-06-10T03:28:04;4.00;99.90
8684;DHT22;4379;59.744;18.206;2023-06-10T03:30:31;4.10;99.90
8684;DHT22;4379;59.744;18.206;2023-06-10T03:33:00;4.30;99.90
8684;DHT22;4379;59.744;18.206;2023-06-10T03:35:27;4.40;99.90
8684;DHT22;4379;59.744;18.206;2023-06-10T03:37:54;4.60;99.90
8684;DHT22;4379;59.744;18.206;2023-06-10T03:40:22;4.90;99.90
8684;DHT22;4379;59.744;18.206;2023-06-10T03:42:49;5.20;99.90
8684;DHT22;4379;59.744;18.206;2023-06-10T03:45:16;5.30;99.90
8684;DHT22;4379;59.744;18.206;2023-06-10T03:47:44;5.40;99.90
8684;DHT22;4379;59.744;18.206;2023-06-10T03:50:12;5.60;99.90
8684;DHT22;4379;59.744;18.206;2023-06-10T03:52:39;5.90;99.90
8684;DHT22;4379;59.744;18.206;2023-06-10T03:55:08;6.20;99.90
8684;DHT22;4379;59.744;18.206;2023-06-10T03:57:38;6.40;99.90
8684;DHT22;4379;59.744;18.206;2023-06-10T04:00:05;6.50;99.90
8684;DHT22;4379;59.744;18.206;2023-06-10T04:02:39;6.70;99.90
8684;DHT22;4379;59.744;18.206;2023-06-10T04:05:15;6.90;99.90
8684;DHT22;4379;59.744;18.206;2023-06-10T04:07:43;7.10;99.90
8684;DHT22;4379;59.744;18.206;2023-06-10T04:10:11;7.30;99.90
8684;DHT22;4379;59.744;18.206;2023-06-10T04:12:39;7.50;99.90
8684;DHT22;4379;59.744;18.206;2023-06-10T04:15:07;7.80;99.90
8684;DHT22;4379;59.744;18.206;2023-06-10T04:17:35;8.00;99.90
8684;DHT22;4379;59.744;18.206;2023-06-10T04:20:02;8.40;99.90
8684;DHT22;4379;59.744;18.206;2023-06-10T04:22:31;8.80;99.90
8684;DHT22;4379;59.744;18.206;2023-06-10T04:24:59;9.20;99.90
8684;DHT22;4379;59.744;18.206;2023-06-10T04:27:26;9.50;99.90
8684;DHT22;4379;59.744;18.206;2023-06-10T04:29:54;9.80;99.90
8684;DHT22;4379;59.744;18.206;2023-06-10T04:32:21;10.10;99.90
8684;DHT22;4379;59.744;18.206;2023-06-10T04:34:49;10.60;99.90
8684;DHT22;4379;59.744;18.206;2023-06-10T04:37:16;11.20;99.90
8684;DHT22;4379;59.744;18.206;2023-06-10T04:39:43;12.40;99.90
8684;DHT22;4379;59.744;18.206;2023-06-10T04:42:11;14.60;99.90
8684;DHT22;4379;59.744;18.206;2023-06-10T04:44:38;17.20;99.90
8684;DHT22;4379;59.744;18.206;2023-06-10T04:47:05;19.80;99.90
8684;DHT22;4379;59.744;18.206;2023-06-10T04:49:34;22.00;99.90
8684;DHT22;4379;59.744;18.206;2023-06-10T04:52:03;23.50;99.90
8684;DHT22;4379;59.744;18.206;2023-06-10T04:54:31;25.10;99.90
8684;DHT22;4379;59.744;18.206;2023-06-10T04:56:59;25.60;98.00
8684;DHT22;4379;59.744;18.206;2023-06-10T04:59:27;26.00;97.40
8684;DHT22;4379;59.744;18.206;2023-06-10T05:01:55;25.70;95.40
8684;DHT22;4379;59.744;18.206;2023-06-10T05:04:22;23.70;95.90
8684;DHT22;4379;59.744;18.206;2023-06-10T05:06:49;22.60;97.20
8684;DHT22;4379;59.744;18.206;2023-06-10T05:09:16;22.40;98.10
8684;DHT22;4379;59.744;18.206;2023-06-10T05:11:44;21.20;99.00
8684;DHT22;4379;59.744;18.206;2023-06-10T05:14:12;21.30;98.60
8684;DHT22;4379;59.744;18.206;2023-06-10T05:16:39;20.50;98.80
8684;DHT22;4379;59.744;18.206;2023-06-10T05:19:07;20.20;99.40
8684;DHT22;4379;59.744;18.206;2023-06-10T05:21:34;20.10;99.90
8684;DHT22;4379;59.744;18.206;2023-06-10T05:24:02;20.30;98.80
8684;DHT22;4379;59.744;18.206;2023-06-10T05:26:29;21.60;99.20
8684;DHT22;4379;59.744;18.206;2023-06-10T05:28:58;23.70;97.30
8684;DHT22;4379;59.744;18.206;2023-06-10T05:31:26;26.30;95.50
8684;DHT22;4379;59.744;18.206;2023-06-10T05:33:53;28.20;94.10
8684;DHT22;4379;59.744;18.206;2023-06-10T05:36:20;30.50;92.20
8684;DHT22;4379;59.744;18.206;2023-06-10T05:38:48;31.90;89.30
8684;DHT22;4379;59.744;18.206;2023-06-10T05:41:15;32.60;85.80
8684;DHT22;4379;59.744;18.206;2023-06-10T05:43:45;33.30;81.10
8684;DHT22;4379;59.744;18.206;2023-06-10T05:46:13;33.40;82.00
8684;DHT22;4379;59.744;18.206;2023-06-10T05:48:41;33.80;78.10
8684;DHT22;4379;59.744;18.206;2023-06-10T05:51:08;33.40;80.90
8684;DHT22;4379;59.744;18.206;2023-06-10T05:53:35;31.90;80.90
8684;DHT22;4379;59.744;18.206;2023-06-10T05:56:03;32.10;82.00
8684;DHT22;4379;59.744;18.206;2023-06-10T05:58:30;31.40;81.80
8684;DHT22;4379;59.744;18.206;2023-06-10T06:00:57;32.90;81.10
8684;DHT22;4379;59.744;18.206;2023-06-10T06:03:24;34.90;77.80
8684;DHT22;4379;59.744;18.206;2023-06-10T06:05:52;35.30;77.40
8684;DHT22;4379;59.744;18.206;2023-06-10T06:08:19;35.60;77.20
8684;DHT22;4379;59.744;18.206;2023-06-10T06:10:47;36.50;74.10
8684;DHT22;4379;59.744;18.206;2023-06-10T06:13:17;36.10;74.30
8684;DHT22;4379;59.744;18.206;2023-06-10T06:15:44;36.60;72.00
8684;DHT22;4379;59.744;18.206;2023-06-10T06:18:11;36.50;72.40
8684;DHT22;4379;59.744;18.206;2023-06-10T06:20:38;36.40;72.00
8684;DHT22;4379;59.744;18.206;2023-06-10T06:23:06;35.70;71.90
8684;DHT22;4379;59.744;18.206;2023-06-10T06:25:35;33.90;73.60
8684;DHT22;4379;59.744;18.206;2023-06-10T06:28:03;34.80;72.70
8684;DHT22;4379;59.744;18.206;2023-06-10T06:30:30;36.40;71.40
8684;DHT22;4379;59.744;18.206;2023-06-10T06:32:57;35.30;71.00
8684;DHT22;4379;59.744;18.206;2023-06-10T06:35:24;36.00;70.40
8684;DHT22;4379;59.744;18.206;2023-06-10T06:37:52;36.70;70.30
8684;DHT22;4379;59.744;18.206;2023-06-10T06:40:19;35.70;70.60
8684;DHT22;4379;59.744;18.206;2023-06-10T06:42:46;37.10;70.30
8684;DHT22;4379;59.744;18.206;2023-06-10T06:45:14;36.00;70.00
8684;DHT22;4379;59.744;18.206;2023-06-10T06:47:42;34.00;68.30
8684;DHT22;4379;59.744;18.206;2023-06-10T06:50:10;32.00;72.90
8684;DHT22;4379;59.744;18.206;2023-06-10T06:52:37;33.40;73.00
8684;DHT22;4379;59.744;18.206;2023-06-10T06:55:05;34.70;72.50
8684;DHT22;4379;59.744;18.206;2023-06-10T06:57:33;35.70;72.00
8684;DHT22;4379;59.744;18.206;2023-06-10T07:00:00;35.60;68.10
8684;DHT22;4379;59.744;18.206;2023-06-10T07:02:27;37.00;69.20
8684;DHT22;4379;59.744;18.206;2023-06-10T07:04:55;38.60;67.70
8684;DHT22;4379;59.744;18.206;2023-06-10T07:07:23;39.60;66.10
8684;DHT22;4379;59.744;18.206;2023-06-10T07:09:50;38.50;66.80
8684;DHT22;4379;59.744;18.206;2023-06-10T07:12:17;38.10;67.00
8684;DHT22;4379;59.744;18.206;2023-06-10T07:14:45;35.70;70.60
8684;DHT22;4379;59.744;18.206;2023-06-10T07:17:12;32.40;70.30
8684;DHT22;4379;59.744;18.206;2023-06-10T07:19:40;36.40;70.50
8684;DHT22;4379;59.744;18.206;2023-06-10T07:22:07;36.50;68.00
8684;DHT22;4379;59.744;18.206;2023-06-10T07:24:35;34.90;71.80
8684;DHT22;4379;59.744;18.206;2023-06-10T07:27:02;35.20;70.90
8684;DHT22;4379;59.744;18.206;2023-06-10T07:29:30;35.20;69.50
8684;DHT22;4379;59.744;18.206;2023-06-10T07:31:57;36.80;68.80
8684;DHT22;4379;59.744;18.206;2023-06-10T07:34:24;35.50;69.90
8684;DHT22;4379;59.744;18.206;2023-06-10T07:36:51;38.30;68.00
8684;DHT22;4379;59.744;18.206;2023-06-10T07:39:19;36.30;67.30
8684;DHT22;4379;59.744;18.206;2023-06-10T07:41:46;35.90;67.30
8684;DHT22;4379;59.744;18.206;2023-06-10T07:44:14;34.40;70.60
8684;DHT22;4379;59.744;18.206;2023-06-10T07:46:41;34.50;70.10
8684;DHT22;4379;59.744;18.206;2023-06-10T07:49:08;32.70;69.30
8684;DHT22;4379;59.744;18.206;2023-06-10T07:51:36;30.50;74.00
8684;DHT22;4379;59.744;18.206;2023-06-10T07:54:03;30.80;73.30
8684;DHT22;4379;59.744;18.206;2023-06-10T07:56:31;30.80;74.00
8684;DHT22;4379;59.744;18.206;2023-06-10T07:58:58;34.50;68.00
8684;DHT22;4379;59.744;18.206;2023-06-10T08:01:26;31.60;70.10
8684;DHT22;4379;59.744;18.206;2023-06-10T08:03:53;32.10;72.40
8684;DHT22;4379;59.744;18.206;2023-06-10T08:06:21;34.40;68.90
8684;DHT22;4379;59.744;18.206;2023-06-10T08:08:48;34.10;69.90
8684;DHT22;4379;59.744;18.206;2023-06-10T08:11:16;30.80;72.70
8684;DHT22;4379;59.744;18.206;2023-06-10T08:13:44;32.90;73.50
8684;DHT22;4379;59.744;18.206;2023-06-10T08:16:13;31.20;66.00
8684;DHT22;4379;59.744;18.206;2023-06-10T08:18:41;29.90;69.70
8684;DHT22;4379;59.744;18.206;2023-06-10T08:21:11;31.10;71.50
8684;DHT22;4379;59.744;18.206;2023-06-10T08:23:40;31.50;68.70
8684;DHT22;4379;59.744;18.206;2023-06-10T08:26:08;30.90;66.60
8684;DHT22;4379;59.744;18.206;2023-06-10T08:28:37;29.80;71.30
8684;DHT22;4379;59.744;18.206;2023-06-10T08:31:04;29.90;70.50
8684;DHT22;4379;59.744;18.206;2023-06-10T08:33:32;28.40;70.10
8684;DHT22;4379;59.744;18.206;2023-06-10T08:35:59;29.20;74.60
8684;DHT22;4379;59.744;18.206;2023-06-10T08:38:26;29.20;74.30
8684;DHT22;4379;59.744;18.206;2023-06-10T08:40:56;29.40;71.10
8684;DHT22;4379;59.744;18.206;2023-06-10T08:43:33;29.50;73.00
8684;DHT22;4379;59.744;18.206;2023-06-10T08:46:03;28.30;73.00
8684;DHT22;4379;59.744;18.206;2023-06-10T08:48:30;25.40;75.50
8684;DHT22;4379;59.744;18.206;2023-06-10T08:51:01;23.20;79.90
8684;DHT22;4379;59.744;18.206;2023-06-10T08:53:32;24.20;80.90
8684;DHT22;4379;59.744;18.206;2023-06-10T08:56:03;24.90;80.90
8684;DHT22;4379;59.744;18.206;2023-06-10T08:58:32;24.40;81.40
8684;DHT22;4379;59.744;18.206;2023-06-10T09:01:02;24.90;80.40
8684;DHT22;4379;59.744;18.206;2023-06-10T09:03:30;25.00;81.50
8684;DHT22;4379;59.744;18.206;2023-06-10T09:05:58;24.70;77.70
8684;DHT22;4379;59.744;18.206;2023-06-10T09:08:26;24.10;78.70
8684;DHT22;4379;59.744;18.206;2023-06-10T09:10:53;22.80;79.40
8684;DHT22;4379;59.744;18.206;2023-06-10T09:13:20;22.80;82.20
8684;DHT22;4379;59.744;18.206;2023-06-10T09:15:48;23.40;80.70
8684;DHT22;4379;59.744;18.206;2023-06-10T09:18:18;23.80;80.50
8684;DHT22;4379;59.744;18.206;2023-06-10T09:20:45;24.00;82.10
8684;DHT22;4379;59.744;18.206;2023-06-10T09:23:13;24.30;79.30
8684;DHT22;4379;59.744;18.206;2023-06-10T09:25:42;24.70;80.80
8684;DHT22;4379;59.744;18.206;2023-06-10T09:28:13;23.30;80.30
8684;DHT22;4379;59.744;18.206;2023-06-10T09:30:41;23.10;80.40
8684;DHT22;4379;59.744;18.206;2023-06-10T09:33:13;23.40;81.80
8684;DHT22;4379;59.744;18.206;2023-06-10T09:35:47;22.30;79.40
8684;DHT22;4379;59.744;18.206;2023-06-10T09:38:19;22.00;81.30
8684;DHT22;4379;59.744;18.206;2023-06-10T09:40:52;22.70;83.20
8684;DHT22;4379;59.744;18.206;2023-06-10T09:43:19;22.80;82.70
8684;DHT22;4379;59.744;18.206;2023-06-10T09:45:50;22.60;83.00
8684;DHT22;4379;59.744;18.206;2023-06-10T09:48:20;23.30;83.00
8684;DHT22;4379;59.744;18.206;2023-06-10T09:50:48;22.80;82.10
8684;DHT22;4379;59.744;18.206;2023-06-10T09:53:17;23.40;83.30
8684;DHT22;4379;59.744;18.206;2023-06-10T09:55:45;23.50;81.90
8684;DHT22;4379;59.744;18.206;2023-06-10T09:58:12;23.00;82.20
8684;DHT22;4379;59.744;18.206;2023-06-10T10:00:39;22.90;85.80
8684;DHT22;4379;59.744;18.206;2023-06-10T10:03:07;22.10;81.70
8684;DHT22;4379;59.744;18.206;2023-06-10T10:05:34;23.10;84.00
8684;DHT22;4379;59.744;18.206;2023-06-10T10:08:02;22.40;83.20
8684;DHT22;4379;59.744;18.206;2023-06-10T10:10:29;21.50;82.60
8684;DHT22;4379;59.744;18.206;2023-06-10T10:12:57;22.00;84.30
8684;DHT22;4379;59.744;18.206;2023-06-10T10:15:29;22.70;83.80
8684;DHT22;4379;59.744;18.206;2023-06-10T10:20:32;23.10;82.40
8684;DHT22;4379;59.744;18.206;2023-06-10T10:23:03;22.90;81.10
8684;DHT22;4379;59.744;18.206;2023-06-10T10:25:37;22.50;82.40
8684;DHT22;4379;59.744;18.206;2023-06-10T10:28:09;22.10;82.60
8684;DHT22;4379;59.744;18.206;2023-06-10T10:31:01;21.80;83.70
8684;DHT22;4379;59.744;18.206;2023-06-10T10:36:24;21.70;82.00
8684;DHT22;4379;59.744;18.206;2023-06-10T10:38:52;21.70;86.10
8684;DHT22;4379;59.744;18.206;2023-06-10T10:41:19;21.90;83.60
8684;DHT22;4379;59.744;18.206;2023-06-10T10:43:48;22.60;83.00
8684;DHT22;4379;59.744;18.206;2023-06-10T10:46:17;23.10;83.30
8684;DHT22;4379;59.744;18.206;2023-06-10T10:48:45;21.90;81.40
8684;DHT22;4379;59.744;18.206;2023-06-10T10:51:15;22.10;84.00
8684;DHT22;4379;59.744;18.206;2023-06-10T10:53:42;22.10;85.20
8684;DHT22;4379;59.744;18.206;2023-06-10T10:56:16;23.00;85.70
8684;DHT22;4379;59.744;18.206;2023-06-10T10:59:05;23.00;84.00
8684;DHT22;4379;59.744;18.206;2023-06-10T11:01:43;22.90;83.30
8684;DHT22;4379;59.744;18.206;2023-06-10T11:04:13;21.90;83.60
8684;DHT22;4379;59.744;18.206;2023-06-10T11:06:54;21.80;86.50
8684;DHT22;4379;59.744;18.206;2023-06-10T11:09:27;21.90;86.60
8684;DHT22;4379;59.744;18.206;2023-06-10T11:11:58;21.50;83.40
8684;DHT22;4379;59.744;18.206;2023-06-10T11:14:28;21.80;85.90
8684;DHT22;4379;59.744;18.206;2023-06-10T11:16:59;22.10;85.10
8684;DHT22;4379;59.744;18.206;2023-06-10T11:19:37;22.70;86.50
8684;DHT22;4379;59.744;18.206;2023-06-10T11:22:06;23.20;86.30
8684;DHT22;4379;59.744;18.206;2023-06-10T11:24:34;22.40;83.80
8684;DHT22;4379;59.744;18.206;2023-06-10T11:27:23;22.90;82.40
8684;DHT22;4379;59.744;18.206;2023-06-10T11:29:58;22.50;82.90
8684;DHT22;4379;59.744;18.206;2023-06-10T11:32:31;21.60;82.50
8684;DHT22;4379;59.744;18.206;2023-06-10T11:34:59;21.50;83.50
8684;DHT22;4379;59.744;18.206;2023-06-10T11:37:27;21.80;82.20
8684;DHT22;4379;59.744;18.206;2023-06-10T11:39:55;21.60;83.20
8684;DHT22;4379;59.744;18.206;2023-06-10T11:42:23;21.60;83.90
8684;DHT22;4379;59.744;18.206;2023-06-10T11:44:51;21.70;82.80
8684;DHT22;4379;59.744;18.206;2023-06-10T11:47:19;21.50;82.00
8684;DHT22;4379;59.744;18.206;2023-06-10T11:49:56;20.90;81.10
8684;DHT22;4379;59.744;18.206;2023-06-10T11:52:30;20.70;83.20
8684;DHT22;4379;59.744;18.206;2023-06-10T11:55:07;20.80;85.30
8684;DHT22;4379;59.744;18.206;2023-06-10T11:57:37;20.80;83.00
8684;DHT22;4379;59.744;18.206;2023-06-10T12:00:07;21.30;86.20
8684;DHT22;4379;59.744;18.206;2023-06-10T12:02:35;20.80;84.70
8684;DHT22;4379;59.744;18.206;2023-06-10T12:05:14;21.20;86.70
8684;DHT22;4379;59.744;18.206;2023-06-10T12:07:42;20.70;87.60
8684;DHT22;4379;59.744;18.206;2023-06-10T12:10:09;20.70;87.80
8684;DHT22;4379;59.744;18.206;2023-06-10T12:12:53;20.50;87.60
8684;DHT22;4379;59.744;18.206;2023-06-10T12:15:24;20.90;86.80
8684;DHT22;4379;59.744;18.206;2023-06-10T12:17:52;20.90;87.00
8684;DHT22;4379;59.744;18.206;2023-06-10T12:20:27;21.10;86.60
8684;DHT22;4379;59.744;18.206;2023-06-10T12:22:55;21.30;84.50
8684;DHT22;4379;59.744;18.206;2023-06-10T12:25:27;21.10;85.80
8684;DHT22;4379;59.744;18.206;2023-06-10T12:27:56;20.80;84.60
8684;DHT22;4379;59.744;18.206;2023-06-10T12:30:26;20.10;84.90
8684;DHT22;4379;59.744;18.206;2023-06-10T12:32:54;20.40;87.60
8684;DHT22;4379;59.744;18.206;2023-06-10T12:35:24;20.70;87.80
8684;DHT22;4379;59.744;18.206;2023-06-10T12:37:59;20.70;86.70
8684;DHT22;4379;59.744;18.206;2023-06-10T12:40:32;20.10;84.60
8684;DHT22;4379;59.744;18.206;2023-06-10T12:43:00;19.60;86.60
8684;DHT22;4379;59.744;18.206;2023-06-10T12:45:29;20.00;88.50
8684;DHT22;4379;59.744;18.206;2023-06-10T12:48:10;20.40;86.90
8684;DHT22;4379;59.744;18.206;2023-06-10T12:50:39;20.40;84.10
8684;DHT22;4379;59.744;18.206;2023-06-10T12:53:07;20.60;84.40
8684;DHT22;4379;59.744;18.206;2023-06-10T12:55:35;20.80;86.20
8684;DHT22;4379;59.744;18.206;2023-06-10T12:58:02;21.00;84.30
8684;DHT22;4379;59.744;18.206;2023-06-10T13:00:30;20.70;83.70
8684;DHT22;4379;59.744;18.206;2023-06-10T13:03:00;20.30;85.90
8684;DHT22;4379;59.744;18.206;2023-06-10T13:05:29;20.60;85.40
8684;DHT22;4379;59.744;18.206;2023-06-10T13:07:58;20.50;85.30
8684;DHT22;4379;59.744;18.206;2023-06-10T13:10:25;20.20;85.00
8684;DHT22;4379;59.744;18.206;2023-06-10T13:12:53;20.30;86.10
8684;DHT22;4379;59.744;18.206;2023-06-10T13:15:21;20.10;84.50
8684;DHT22;4379;59.744;18.206;2023-06-10T13:17:49;20.80;86.80
8684;DHT22;4379;59.744;18.206;2023-06-10T13:20:18;20.70;84.80
8684;DHT22;4379;59.744;18.206;2023-06-10T13:22:46;20.70;82.90
8684;DHT22;4379;59.744;18.206;2023-06-10T13:25:17;20.40;84.10
8684;DHT22;4379;59.744;18.206;2023-06-10T13:27:44;20.30;84.60
8684;DHT22;4379;59.744;18.206;2023-06-10T13:30:11;20.50;83.80
8684;DHT22;4379;59.744;18.206;2023-06-10T13:32:39;20.40;83.00
8684;DHT22;4379;59.744;18.206;2023-06-10T13:35:06;20.30;84.40
8684;DHT22;4379;59.744;18.206;2023-06-10T13:37:35;20.70;87.80
8684;DHT22;4379;59.744;18.206;2023-06-10T13:40:03;20.10;83.40
8684;DHT22;4379;59.744;18.206;2023-06-10T13:42:31;20.00;83.90
8684;DHT22;4379;59.744;18.206;2023-06-10T13:44:59;19.60;83.70
8684;DHT22;4379;59.744;18.206;2023-06-10T13:47:26;20.00;85.70
8684;DHT22;4379;59.744;18.206;2023-06-10T13:49:54;19.90;84.00
8684;DHT22;4379;59.744;18.206;2023-06-10T13:52:21;19.80;82.90
8684;DHT22;4379;59.744;18.206;2023-06-10T13:54:49;20.30;85.70
8684;DHT22;4379;59.744;18.206;2023-06-10T13:57:16;20.40;84.80
8684;DHT22;4379;59.744;18.206;2023-06-10T13:59:44;20.50;83.40
8684;DHT22;4379;59.744;18.206;2023-06-10T14:02:12;20.50;83.50
8684;DHT22;4379;59.744;18.206;2023-06-10T14:04:40;20.70;84.00
8684;DHT22;4379;59.744;18.206;2023-06-10T14:07:07;20.40;84.20
8684;DHT22;4379;59.744;18.206;2023-06-10T14:09:34;20.50;85.00
8684;DHT22;4379;59.744;18.206;2023-06-10T14:12:02;20.20;84.00
8684;DHT22;4379;59.744;18.206;2023-06-10T14:14:31;20.20;84.40
8684;DHT22;4379;59.744;18.206;2023-06-10T14:17:00;20.30;83.10
8684;DHT22;4379;59.744;18.206;2023-06-10T14:19:27;20.60;87.40
8684;DHT22;4379;59.744;18.206;2023-06-10T14:21:55;20.40;83.50
8684;DHT22;4379;59.744;18.206;2023-06-10T14:24:22;20.60;83.50
8684;DHT22;4379;59.744;18.206;2023-06-10T14:26:50;20.60;85.40
8684;DHT22;4379;59.744;18.206;2023-06-10T14:29:17;20.70;84.40
8684;DHT22;4379;59.744;18.206;2023-06-10T14:31:46;20.50;83.10
8684;DHT22;4379;59.744;18.206;2023-06-10T14:34:14;20.40;83.50
8684;DHT22;4379;59.744;18.206;2023-06-10T14:36:42;20.40;83.80
8684;DHT22;4379;59.744;18.206;2023-06-10T14:39:10;20.60;82.90
8684;DHT22;4379;59.744;18.206;2023-06-10T14:41:38;20.50;84.20
8684;DHT22;4379;59.744;18.206;2023-06-10T14:44:05;20.20;83.20
8684;DHT22;4379;59.744;18.206;2023-06-10T14:46:32;20.20;83.70
8684;DHT22;4379;59.744;18.206;2023-06-10T14:49:03;20.10;84.20
8684;DHT22;4379;59.744;18.206;2023-06-10T14:51:30;20.10;85.60
8684;DHT22;4379;59.744;18.206;2023-06-10T14:54:02;20.00;84.10
8684;DHT22;4379;59.744;18.206;2023-06-10T14:56:29;20.20;84.60
8684;DHT22;4379;59.744;18.206;2023-06-10T14:58:57;20.40;86.10
8684;DHT22;4379;59.744;18.206;2023-06-10T15:01:24;20.10;83.60
8684;DHT22;4379;59.744;18.206;2023-06-10T15:03:53;20.00;83.80
8684;DHT22;4379;59.744;18.206;2023-06-10T15:06:20;20.20;84.80
8684;DHT22;4379;59.744;18.206;2023-06-10T15:08:49;20.30;84.50
8684;DHT22;4379;59.744;18.206;2023-06-10T15:11:16;20.40;85.90
8684;DHT22;4379;59.744;18.206;2023-06-10T15:13:44;20.20;85.20
8684;DHT22;4379;59.744;18.206;2023-06-10T15:16:11;20.20;84.50
8684;DHT22;4379;59.744;18.206;2023-06-10T15:18:38;19.80;83.70
8684;DHT22;4379;59.744;18.206;2023-06-10T15:21:06;19.70;86.60
8684;DHT22;4379;59.744;18.206;2023-06-10T15:23:33;19.60;86.80
8684;DHT22;4379;59.744;18.206;2023-06-10T15:26:00;19.40;85.90
8684;DHT22;4379;59.744;18.206;2023-06-10T15:28:28;19.30;86.00
8684;DHT22;4379;59.744;18.206;2023-06-10T15:30:55;19.30;86.40
8684;DHT22;4379;59.744;18.206;2023-06-10T15:33:22;19.20;85.10
8684;DHT22;4379;59.744;18.206;2023-06-10T15:35:49;19.20;86.50
8684;DHT22;4379;59.744;18.206;2023-06-10T15:38:19;19.10;85.20
8684;DHT22;4379;59.744;18.206;2023-06-10T15:40:47;19.30;87.90
8684;DHT22;4379;59.744;18.206;2023-06-10T15:43:14;19.60;88.20
8684;DHT22;4379;59.744;18.206;2023-06-10T15:45:41;19.40;86.50
8684;DHT22;4379;59.744;18.206;2023-06-10T15:48:09;19.50;88.20
8684;DHT22;4379;59.744;18.206;2023-06-10T15:50:36;19.50;86.20
8684;DHT22;4379;59.744;18.206;2023-06-10T15:53:04;19.50;87.10
8684;DHT22;4379;59.744;18.206;2023-06-10T15:55:31;19.20;86.60
8684;DHT22;4379;59.744;18.206;2023-06-10T15:57:59;19.30;87.30
8684;DHT22;4379;59.744;18.206;2023-06-10T16:00:27;19.20;86.60
8684;DHT22;4379;59.744;18.206;2023-06-10T16:02:55;19.30;87.40
8684;DHT22;4379;59.744;18.206;2023-06-10T16:05:22;19.30;86.40
8684;DHT22;4379;59.744;18.206;2023-06-10T16:07:50;19.10;87.10